sensor_id;sensor_type;location;lat;lon;timestamp;temperature;humidity
2763;DHT22;1389;51.490;7.338;2023-03-01T00:01:36;0.50;80.10
2763;DHT22;1389;51.490;7.338;2023-03-01T00:04:02;0.40;80.30
2763;DHT22;1389;51.490;7.338;2023-03-01T00:06:28;0.30;80.50
2763;DHT22;1389;51.490;7.338;2023-03-01T00:08:55;0.30;81.00
2763;DHT22;1389;51.490;7.338;2023-03-01T00:11:31;0.20;81.40
2763;DHT22;1389;51.490;7.338;2023-03-01T00:13:59;0.20;81.50
2763;DHT22;1389;51.490;7.338;2023-03-01T00:16:32;0.20;81.10
2763;DHT22;1389;51.490;7.338;2023-03-01T00:19:02;0.20;80.90
2763;DHT22;1389;51.490;7.338;2023-03-01T00:21:28;0.20;80.80
2763;DHT22;1389;51.490;7.338;2023-03-01T00:23:54;0.20;80.70
2763;DHT22;1389;51.490;7.338;2023-03-01T00:26:22;0.20;80.50
2763;DHT22;1389;51.490;7.338;2023-03-01T00:28:49;0.20;80.40
2763;DHT22;1389;51.490;7.338;2023-03-01T00:31:18;0.30;80.30
2763;DHT22;1389;51.490;7.338;2023-03-01T00:33:45;0.20;80.40
2763;DHT22;1389;51.490;7.338;2023-03-01T00:36:13;0.20;80.30
2763;DHT22;1389;51.490;7.338;2023-03-01T00:38:42;0.20;80.10
2763;DHT22;1389;51.490;7.338;2023-03-01T00:41:11;0.20;80.00
2763;DHT22;1389;51.490;7.338;2023-03-01T00:43:38;0.20;79.90
2763;DHT22;1389;51.490;7.338;2023-03-01T00:46:06;0.20;79.90
2763;DHT22;1389;51.490;7.338;2023-03-01T00:48:33;0.20;80.00
2763;DHT22;1389;51.490;7.338;2023-03-01T00:51:07;0.20;80.00
2763;DHT22;1389;51.490;7.338;2023-03-01T00:53:34;0.20;80.10
2763;DHT22;1389;51.490;7.338;2023-03-01T00:56:01;0.10;80.30
2763;DHT22;1389;51.490;7.338;2023-03-01T00:58:27;0.10;80.50
2763;DHT22;1389;51.490;7.338;2023-03-01T01:00:53;0.10;80.80
2763;DHT22;1389;51.490;7.338;2023-03-01T01:03:19;0.00;80.80
2763;DHT22;1389;51.490;7.338;2023-03-01T01:05:45;0.00;80.70
2763;DHT22;1389;51.490;7.338;2023-03-01T01:08:11;0.00;80.50
2763;DHT22;1389;51.490;7.338;2023-03-01T01:10:37;0.00;80.20
2763;DHT22;1389;51.490;7.338;2023-03-01T01:13:04;-0.10;80.30
2763;DHT22;1389;51.490;7.338;2023-03-01T01:15:34;-0.10;80.70
2763;DHT22;1389;51.490;7.338;2023-03-01T01:18:00;-0.10;80.70
2763;DHT22;1389;51.490;7.338;2023-03-01T01:20:27;-0.10;80.80
2763;DHT22;1389;51.490;7.338;2023-03-01T01:22:53;-0.10;80.60
2763;DHT22;1389;51.490;7.338;2023-03-01T01:25:19;-0.10;80.50
2763;DHT22;1389;51.490;7.338;2023-03-01T01:27:45;-0.10;80.30
2763;DHT22;1389;51.490;7.338;2023-03-01T01:30:12;-0.10;80.30
2763;DHT22;1389;51.490;7.338;2023-03-01T01:32:38;-0.10;80.30
2763;DHT22;1389;51.490;7.338;2023-03-01T01:35:05;-0.20;80.60
2763;DHT22;1389;51.490;7.338;2023-03-01T01:37:31;-0.20;80.80
2763;DHT22;1389;51.490;7.338;2023-03-01T01:40:01;-0.30;81.10
2763;DHT22;1389;51.490;7.338;2023-03-01T01:42:30;-0.40;81.30
2763;DHT22;1389;51.490;7.338;2023-03-01T01:47:55;-0.60;81.90
2763;DHT22;1389;51.490;7.338;2023-03-01T01:50:23;-0.60;82.20
2763;DHT22;1389;51.490;7.338;2023-03-01T01:52:51;-0.60;82.70
2763;DHT22;1389;51.490;7.338;2023-03-01T01:55:21;-0.70;82.60
2763;DHT22;1389;51.490;7.338;2023-03-01T01:57:55;-0.70;82.80
2763;DHT22;1389;51.490;7.338;2023-03-01T02:00:24;-0.70;83.00
2763;DHT22;1389;51.490;7.338;2023-03-01T02:02:56;-0.80;83.20
2763;DHT22;1389;51.490;7.338;2023-03-01T02:08:16;-0.90;83.20
2763;DHT22;1389;51.490;7.338;2023-03-01T02:10:44;-0.90;83.60
2763;DHT22;1389;51.490;7.338;2023-03-01T02:13:11;-0.80;83.50
2763;DHT22;1389;51.490;7.338;2023-03-01T02:15:39;-0.90;83.60
2763;DHT22;1389;51.490;7.338;2023-03-01T02:18:07;-0.90;83.50
2763;DHT22;1389;51.490;7.338;2023-03-01T02:23:41;-0.80;83.50
2763;DHT22;1389;51.490;7.338;2023-03-01T02:26:27;-0.80;83.30
2763;DHT22;1389;51.490;7.338;2023-03-01T02:28:54;-0.80;83.30
2763;DHT22;1389;51.490;7.338;2023-03-01T02:31:21;-0.80;83.10
2763;DHT22;1389;51.490;7.338;2023-03-01T02:34:08;-0.80;83.20
2763;DHT22;1389;51.490;7.338;2023-03-01T02:36:37;-0.80;83.10
2763;DHT22;1389;51.490;7.338;2023-03-01T02:39:07;-0.80;83.10
2763;DHT22;1389;51.490;7.338;2023-03-01T02:41:37;-0.80;83.00
2763;DHT22;1389;51.490;7.338;2023-03-01T02:44:04;-0.80;83.20
2763;DHT22;1389;51.490;7.338;2023-03-01T02:46:30;-0.80;83.10
2763;DHT22;1389;51.490;7.338;2023-03-01T02:48:58;-0.80;83.10
2763;DHT22;1389;51.490;7.338;2023-03-01T02:54:35;-0.90;83.30
2763;DHT22;1389;51.490;7.338;2023-03-01T02:57:02;-1.00;83.20
2763;DHT22;1389;51.490;7.338;2023-03-01T02:59:32;-1.00;83.00
2763;DHT22;1389;51.490;7.338;2023-03-01T03:02:06;-1.00;82.80
2763;DHT22;1389;51.490;7.338;2023-03-01T03:04:32;-1.00;83.10
2763;DHT22;1389;51.490;7.338;2023-03-01T03:06:58;-1.10;83.20
2763;DHT22;1389;51.490;7.338;2023-03-01T03:09:24;-1.10;83.50
2763;DHT22;1389;51.490;7.338;2023-03-01T03:11:50;-1.10;83.50
2763;DHT22;1389;51.490;7.338;2023-03-01T03:14:17;-1.10;83.30
2763;DHT22;1389;51.490;7.338;2023-03-01T03:16:46;-1.10;83.20
2763;DHT22;1389;51.490;7.338;2023-03-01T03:19:12;-1.10;83.40
2763;DHT22;1389;51.490;7.338;2023-03-01T03:21:39;-1.10;83.40
2763;DHT22;1389;51.490;7.338;2023-03-01T03:24:05;-1.10;83.40
2763;DHT22;1389;51.490;7.338;2023-03-01T03:26:31;-1.10;83.30
2763;DHT22;1389;51.490;7.338;2023-03-01T03:28:58;-1.20;83.30
2763;DHT22;1389;51.490;7.338;2023-03-01T03:31:24;-1.30;83.70
2763;DHT22;1389;51.490;7.338;2023-03-01T03:33:50;-1.30;83.80
2763;DHT22;1389;51.490;7.338;2023-03-01T03:36:18;-1.40;84.00
2763;DHT22;1389;51.490;7.338;2023-03-01T03:38:45;-1.40;84.30
2763;DHT22;1389;51.490;7.338;2023-03-01T03:41:15;-1.40;84.80
2763;DHT22;1389;51.490;7.338;2023-03-01T03:43:42;-1.40;84.80
2763;DHT22;1389;51.490;7.338;2023-03-01T03:46:10;-1.40;84.80
2763;DHT22;1389;51.490;7.338;2023-03-01T03:48:41;-1.40;84.60
2763;DHT22;1389;51.490;7.338;2023-03-01T03:51:11;-1.30;84.20
2763;DHT22;1389;51.490;7.338;2023-03-01T03:53:37;-1.30;84.20
2763;DHT22;1389;51.490;7.338;2023-03-01T03:56:04;-1.30;84.30
2763;DHT22;1389;51.490;7.338;2023-03-01T03:58:30;-1.30;84.50
2763;DHT22;1389;51.490;7.338;2023-03-01T04:00:57;-1.40;84.50
2763;DHT22;1389;51.490;7.338;2023-03-01T04:03:24;-1.40;84.60
2763;DHT22;1389;51.490;7.338;2023-03-01T04:05:51;-1.30;84.50
2763;DHT22;1389;51.490;7.338;2023-03-01T04:08:19;-1.40;84.50
2763;DHT22;1389;51.490;7.338;2023-03-01T04:10:49;-1.40;84.30
2763;DHT22;1389;51.490;7.338;2023-03-01T04:13:21;-1.30;84.10
2763;DHT22;1389;51.490;7.338;2023-03-01T04:15:52;-1.30;83.90
2763;DHT22;1389;51.490;7.338;2023-03-01T04:18:19;-1.30;83.60
2763;DHT22;1389;51.490;7.338;2023-03-01T04:20:47;-1.30;83.20
2763;DHT22;1389;51.490;7.338;2023-03-01T04:23:15;-1.30;83.30
2763;DHT22;1389;51.490;7.338;2023-03-01T04:25:52;-1.30;83.50
2763;DHT22;1389;51.490;7.338;2023-03-01T04:28:25;-1.40;83.40
2763;DHT22;1389;51.490;7.338;2023-03-01T04:30:52;-1.40;83.50
2763;DHT22;1389;51.490;7.338;2023-03-01T04:33:19;-1.50;83.70
2763;DHT22;1389;51.490;7.338;2023-03-01T04:35:45;-1.50;83.70
2763;DHT22;1389;51.490;7.338;2023-03-01T04:38:11;-1.60;83.30
2763;DHT22;1389;51.490;7.338;2023-03-01T04:40:37;-1.60;83.50
2763;DHT22;1389;51.490;7.338;2023-03-01T04:43:04;-1.70;84.00
2763;DHT22;1389;51.490;7.338;2023-03-01T04:45:32;-1.80;84.40
2763;DHT22;1389;51.490;7.338;2023-03-01T04:48:00;-1.90;84.90
2763;DHT22;1389;51.490;7.338;2023-03-01T04:50:26;-1.90;84.80
2763;DHT22;1389;51.490;7.338;2023-03-01T04:52:52;-2.00;84.70
2763;DHT22;1389;51.490;7.338;2023-03-01T04:55:19;-1.90;84.70
2763;DHT22;1389;51.490;7.338;2023-03-01T04:57:45;-1.90;84.60
2763;DHT22;1389;51.490;7.338;2023-03-01T05:00:13;-1.90;84.80
2763;DHT22;1389;51.490;7.338;2023-03-01T05:02:57;-2.00;84.90
2763;DHT22;1389;51.490;7.338;2023-03-01T05:07:56;-1.90;84.70
2763;DHT22;1389;51.490;7.338;2023-03-01T05:10:23;-2.00;84.80
2763;DHT22;1389;51.490;7.338;2023-03-01T05:12:49;-2.00;84.80
2763;DHT22;1389;51.490;7.338;2023-03-01T05:15:18;-1.90;84.50
2763;DHT22;1389;51.490;7.338;2023-03-01T05:17:44;-1.90;84.30
2763;DHT22;1389;51.490;7.338;2023-03-01T05:20:12;-1.90;84.40
2763;DHT22;1389;51.490;7.338;2023-03-01T05:22:38;-1.90;84.30
2763;DHT22;1389;51.490;7.338;2023-03-01T05:25:05;-1.90;84.00
2763;DHT22;1389;51.490;7.338;2023-03-01T05:27:31;-1.80;83.70
2763;DHT22;1389;51.490;7.338;2023-03-01T05:29:57;-1.90;83.70
2763;DHT22;1389;51.490;7.338;2023-03-01T05:32:23;-2.00;84.40
2763;DHT22;1389;51.490;7.338;2023-03-01T05:34:49;-2.10;84.80
2763;DHT22;1389;51.490;7.338;2023-03-01T05:37:17;-2.20;84.70
2763;DHT22;1389;51.490;7.338;2023-03-01T05:39:45;-2.30;84.90
2763;DHT22;1389;51.490;7.338;2023-03-01T05:42:11;-2.30;85.00
2763;DHT22;1389;51.490;7.338;2023-03-01T05:44:38;-2.30;85.20
2763;DHT22;1389;51.490;7.338;2023-03-01T05:47:04;-2.30;85.20
2763;DHT22;1389;51.490;7.338;2023-03-01T05:49:31;-2.30;85.30
2763;DHT22;1389;51.490;7.338;2023-03-01T05:51:57;-2.30;85.40
2763;DHT22;1389;51.490;7.338;2023-03-01T05:54:23;-2.30;85.60
2763;DHT22;1389;51.490;7.338;2023-03-01T05:56:49;-2.20;85.40
2763;DHT22;1389;51.490;7.338;2023-03-01T05:59:15;-2.20;85.40
2763;DHT22;1389;51.490;7.338;2023-03-01T06:01:42;-2.20;85.10
2763;DHT22;1389;51.490;7.338;2023-03-01T06:04:08;-2.30;85.00
2763;DHT22;1389;51.490;7.338;2023-03-01T06:06:35;-2.30;85.40
2763;DHT22;1389;51.490;7.338;2023-03-01T06:09:07;-2.30;85.50
2763;DHT22;1389;51.490;7.338;2023-03-01T06:11:35;-2.30;85.40
2763;DHT22;1389;51.490;7.338;2023-03-01T06:14:02;-2.30;85.70
2763;DHT22;1389;51.490;7.338;2023-03-01T06:16:28;-2.30;85.80
2763;DHT22;1389;51.490;7.338;2023-03-01T06:18:54;-2.40;85.80
2763;DHT22;1389;51.490;7.338;2023-03-01T06:21:20;-2.40;85.90
2763;DHT22;1389;51.490;7.338;2023-03-01T06:23:46;-2.40;86.30
2763;DHT22;1389;51.490;7.338;2023-03-01T06:26:12;-2.40;86.30
2763;DHT22;1389;51.490;7.338;2023-03-01T06:28:38;-2.40;86.20
2763;DHT22;1389;51.490;7.338;2023-03-01T06:31:04;-2.40;86.10
2763;DHT22;1389;51.490;7.338;2023-03-01T06:33:34;-2.50;86.30
2763;DHT22;1389;51.490;7.338;2023-03-01T06:36:00;-2.50;86.60
2763;DHT22;1389;51.490;7.338;2023-03-01T06:38:26;-2.50;86.70
2763;DHT22;1389;51.490;7.338;2023-03-01T06:40:55;-2.50;86.70
2763;DHT22;1389;51.490;7.338;2023-03-01T06:43:22;-2.50;86.90
2763;DHT22;1389;51.490;7.338;2023-03-01T06:45:49;-2.50;86.70
2763;DHT22;1389;51.490;7.338;2023-03-01T06:48:15;-2.50;86.70
2763;DHT22;1389;51.490;7.338;2023-03-01T06:50:41;-2.40;86.70
2763;DHT22;1389;51.490;7.338;2023-03-01T06:53:07;-2.30;86.30
2763;DHT22;1389;51.490;7.338;2023-03-01T06:55:33;-2.30;86.10
2763;DHT22;1389;51.490;7.338;2023-03-01T06:58:01;-2.20;85.80
2763;DHT22;1389;51.490;7.338;2023-03-01T07:00:28;-2.20;85.70
2763;DHT22;1389;51.490;7.338;2023-03-01T07:02:54;-2.20;85.70
2763;DHT22;1389;51.490;7.338;2023-03-01T07:05:23;-2.10;85.70
2763;DHT22;1389;51.490;7.338;2023-03-01T07:07:49;-2.10;85.30
2763;DHT22;1389;51.490;7.338;2023-03-01T07:10:15;-2.00;85.30
2763;DHT22;1389;51.490;7.338;2023-03-01T07:12:41;-2.00;85.30
2763;DHT22;1389;51.490;7.338;2023-03-01T07:15:09;-2.00;85.50
2763;DHT22;1389;51.490;7.338;2023-03-01T07:17:36;-1.90;85.70
2763;DHT22;1389;51.490;7.338;2023-03-01T07:20:02;-1.90;85.90
2763;DHT22;1389;51.490;7.338;2023-03-01T07:22:28;-1.80;85.90
2763;DHT22;1389;51.490;7.338;2023-03-01T07:24:54;-1.70;85.90
2763;DHT22;1389;51.490;7.338;2023-03-01T07:27:20;-1.70;85.80
2763;DHT22;1389;51.490;7.338;2023-03-01T07:29:46;-1.70;85.60
2763;DHT22;1389;51.490;7.338;2023-03-01T07:32:12;-1.60;85.50
2763;DHT22;1389;51.490;7.338;2023-03-01T07:34:38;-1.60;85.60
2763;DHT22;1389;51.490;7.338;2023-03-01T07:37:04;-1.50;85.80
2763;DHT22;1389;51.490;7.338;2023-03-01T07:39:30;-1.50;86.10
2763;DHT22;1389;51.490;7.338;2023-03-01T07:41:56;-1.40;86.10
2763;DHT22;1389;51.490;7.338;2023-03-01T07:44:22;-1.30;86.20
2763;DHT22;1389;51.490;7.338;2023-03-01T07:46:48;-1.20;86.10
2763;DHT22;1389;51.490;7.338;2023-03-01T07:49:14;-1.20;86.20
2763;DHT22;1389;51.490;7.338;2023-03-01T07:51:40;-1.00;86.50
2763;DHT22;1389;51.490;7.338;2023-03-01T07:54:07;-0.90;86.30
2763;DHT22;1389;51.490;7.338;2023-03-01T07:56:34;-0.80;86.10
2763;DHT22;1389;51.490;7.338;2023-03-01T07:59:00;-0.70;85.70
2763;DHT22;1389;51.490;7.338;2023-03-01T08:01:26;-0.60;85.50
2763;DHT22;1389;51.490;7.338;2023-03-01T08:03:52;-0.50;85.30
2763;DHT22;1389;51.490;7.338;2023-03-01T08:06:19;-0.50;85.20
2763;DHT22;1389;51.490;7.338;2023-03-01T08:08:45;-0.40;85.10
2763;DHT22;1389;51.490;7.338;2023-03-01T08:11:13;-0.30;85.00
2763;DHT22;1389;51.490;7.338;2023-03-01T08:13:39;-0.20;85.00
2763;DHT22;1389;51.490;7.338;2023-03-01T08:16:14;-0.20;84.80
2763;DHT22;1389;51.490;7.338;2023-03-01T08:18:41;-0.10;84.40
2763;DHT22;1389;51.490;7.338;2023-03-01T08:21:10;0.00;84.10
2763;DHT22;1389;51.490;7.338;2023-03-01T08:23:37;0.10;83.50
2763;DHT22;1389;51.490;7.338;2023-03-01T08:26:14;0.20;83.10
2763;DHT22;1389;51.490;7.338;2023-03-01T08:28:41;0.20;83.10
2763;DHT22;1389;51.490;7.338;2023-03-01T08:31:24;0.40;82.90
2763;DHT22;1389;51.490;7.338;2023-03-01T08:33:54;0.40;82.60
2763;DHT22;1389;51.490;7.338;2023-03-01T08:36:26;0.50;82.20
2763;DHT22;1389;51.490;7.338;2023-03-01T08:38:52;0.60;81.20
2763;DHT22;1389;51.490;7.338;2023-03-01T08:41:19;0.70;80.90
2763;DHT22;1389;51.490;7.338;2023-03-01T08:43:45;0.80;80.60
2763;DHT22;1389;51.490;7.338;2023-03-01T08:46:11;0.90;80.40
2763;DHT22;1389;51.490;7.338;2023-03-01T08:48:38;1.00;80.10
2763;DHT22;1389;51.490;7.338;2023-03-01T08:51:17;1.60;81.70
2763;DHT22;1389;51.490;7.338;2023-03-01T08:53:44;2.40;79.90
2763;DHT22;1389;51.490;7.338;2023-03-01T08:56:11;2.90;77.20
2763;DHT22;1389;51.490;7.338;2023-03-01T08:58:38;3.10;75.70
2763;DHT22;1389;51.490;7.338;2023-03-01T09:01:14;3.60;75.80
2763;DHT22;1389;51.490;7.338;2023-03-01T09:03:41;4.20;73.50
2763;DHT22;1389;51.490;7.338;2023-03-01T09:06:07;4.40;70.40
2763;DHT22;1389;51.490;7.338;2023-03-01T09:08:41;4.50;69.40
2763;DHT22;1389;51.490;7.338;2023-03-01T09:11:12;4.40;68.50
2763;DHT22;1389;51.490;7.338;2023-03-01T09:13:39;4.20;68.00
2763;DHT22;1389;51.490;7.338;2023-03-01T09:16:07;3.90;68.50
2763;DHT22;1389;51.490;7.338;2023-03-01T09:18:34;3.60;69.70
2763;DHT22;1389;51.490;7.338;2023-03-01T09:21:13;3.50;70.40
2763;DHT22;1389;51.490;7.338;2023-03-01T09:23:44;3.30;70.40
2763;DHT22;1389;51.490;7.338;2023-03-01T09:26:19;3.20;71.20
2763;DHT22;1389;51.490;7.338;2023-03-01T09:28:46;3.10;71.40
2763;DHT22;1389;51.490;7.338;2023-03-01T09:31:13;3.10;71.30
2763;DHT22;1389;51.490;7.338;2023-03-01T09:33:41;3.10;72.10
2763;DHT22;1389;51.490;7.338;2023-03-01T09:36:11;3.10;72.00
2763;DHT22;1389;51.490;7.338;2023-03-01T09:38:38;3.20;71.70
2763;DHT22;1389;51.490;7.338;2023-03-01T09:41:10;3.20;71.30
2763;DHT22;1389;51.490;7.338;2023-03-01T09:43:45;3.20;71.10
2763;DHT22;1389;51.490;7.338;2023-03-01T09:46:14;3.20;71.10
2763;DHT22;1389;51.490;7.338;2023-03-01T09:49:06;3.30;70.80
2763;DHT22;1389;51.490;7.338;2023-03-01T09:51:36;3.20;70.70
2763;DHT22;1389;51.490;7.338;2023-03-01T09:54:04;3.30;70.70
2763;DHT22;1389;51.490;7.338;2023-03-01T09:56:44;3.20;70.40
2763;DHT22;1389;51.490;7.338;2023-03-01T09:59:26;3.30;70.40
2763;DHT22;1389;51.490;7.338;2023-03-01T10:04:50;3.30;70.50
2763;DHT22;1389;51.490;7.338;2023-03-01T10:10:08;3.40;70.20
2763;DHT22;1389;51.490;7.338;2023-03-01T10:12:41;3.60;69.00
2763;DHT22;1389;51.490;7.338;2023-03-01T10:15:15;3.60;68.60
2763;DHT22;1389;51.490;7.338;2023-03-01T10:17:50;3.60;68.80
2763;DHT22;1389;51.490;7.338;2023-03-01T10:20:28;3.70;68.40
2763;DHT22;1389;51.490;7.338;2023-03-01T10:22:55;3.70;67.90
2763;DHT22;1389;51.490;7.338;2023-03-01T10:25:56;3.70;67.80
2763;DHT22;1389;51.490;7.338;2023-03-01T10:30:59;4.20;68.70
2763;DHT22;1389;51.490;7.338;2023-03-01T10:33:37;4.30;67.90
2763;DHT22;1389;51.490;7.338;2023-03-01T10:36:05;4.40;67.90
2763;DHT22;1389;51.490;7.338;2023-03-01T10:38:54;4.40;67.30
2763;DHT22;1389;51.490;7.338;2023-03-01T10:41:24;4.40;66.60
2763;DHT22;1389;51.490;7.338;2023-03-01T10:43:56;4.30;67.20
2763;DHT22;1389;51.490;7.338;2023-03-01T10:49:22;4.30;66.90
2763;DHT22;1389;51.490;7.338;2023-03-01T10:51:52;4.30;68.10
2763;DHT22;1389;51.490;7.338;2023-03-01T10:54:20;4.40;67.50
2763;DHT22;1389;51.490;7.338;2023-03-01T10:56:52;4.50;67.70
2763;DHT22;1389;51.490;7.338;2023-03-01T10:59:43;4.60;66.90
2763;DHT22;1389;51.490;7.338;2023-03-01T11:02:26;4.50;65.90
2763;DHT22;1389;51.490;7.338;2023-03-01T11:07:23;4.50;67.30
2763;DHT22;1389;51.490;7.338;2023-03-01T11:09:49;4.60;67.60
2763;DHT22;1389;51.490;7.338;2023-03-01T11:12:16;4.60;66.80
2763;DHT22;1389;51.490;7.338;2023-03-01T11:14:51;4.60;67.20
2763;DHT22;1389;51.490;7.338;2023-03-01T11:17:29;4.60;66.80
2763;DHT22;1389;51.490;7.338;2023-03-01T11:22:49;4.70;67.60
2763;DHT22;1389;51.490;7.338;2023-03-01T11:25:18;4.70;66.50
2763;DHT22;1389;51.490;7.338;2023-03-01T11:27:45;4.70;66.00
2763;DHT22;1389;51.490;7.338;2023-03-01T11:30:32;4.70;67.20
2763;DHT22;1389;51.490;7.338;2023-03-01T11:38:27;4.80;67.30
2763;DHT22;1389;51.490;7.338;2023-03-01T11:41:00;4.90;66.80
2763;DHT22;1389;51.490;7.338;2023-03-01T11:44:00;4.90;67.10
2763;DHT22;1389;51.490;7.338;2023-03-01T11:46:44;5.00;67.30
2763;DHT22;1389;51.490;7.338;2023-03-01T11:51:58;5.10;67.10
2763;DHT22;1389;51.490;7.338;2023-03-01T11:54:55;5.20;66.50
2763;DHT22;1389;51.490;7.338;2023-03-01T12:06:39;5.30;65.00
2763;DHT22;1389;51.490;7.338;2023-03-01T12:09:27;5.20;65.50
2763;DHT22;1389;51.490;7.338;2023-03-01T12:26:10;5.40;65.50
2763;DHT22;1389;51.490;7.338;2023-03-01T12:28:51;5.50;65.20
2763;DHT22;1389;51.490;7.338;2023-03-01T12:51:20;5.60;63.60
2763;DHT22;1389;51.490;7.338;2023-03-01T12:53:50;5.60;63.90
2763;DHT22;1389;51.490;7.338;2023-03-01T12:56:22;5.70;64.40
2763;DHT22;1389;51.490;7.338;2023-03-01T13:10:34;6.00;63.10
2763;DHT22;1389;51.490;7.338;2023-03-01T13:13:24;5.90;62.10
2763;DHT22;1389;51.490;7.338;2023-03-01T13:15:50;6.10;62.40
2763;DHT22;1389;51.490;7.338;2023-03-01T13:20:47;6.10;61.90
2763;DHT22;1389;51.490;7.338;2023-03-01T13:33:45;6.20;61.20
2763;DHT22;1389;51.490;7.338;2023-03-01T13:39:03;6.40;62.30
2763;DHT22;1389;51.490;7.338;2023-03-01T13:46:56;6.50;61.30
2763;DHT22;1389;51.490;7.338;2023-03-01T13:49:27;6.50;60.70
2763;DHT22;1389;51.490;7.338;2023-03-01T13:51:54;6.50;61.50
2763;DHT22;1389;51.490;7.338;2023-03-01T13:54:30;6.50;61.20
2763;DHT22;1389;51.490;7.338;2023-03-01T13:56:59;6.50;60.80
2763;DHT22;1389;51.490;7.338;2023-03-01T13:59:26;6.60;61.10
2763;DHT22;1389;51.490;7.338;2023-03-01T14:01:57;6.60;61.50
2763;DHT22;1389;51.490;7.338;2023-03-01T14:04:33;6.50;60.60
2763;DHT22;1389;51.490;7.338;2023-03-01T14:07:20;6.60;61.30
2763;DHT22;1389;51.490;7.338;2023-03-01T14:09:51;6.60;61.50
2763;DHT22;1389;51.490;7.338;2023-03-01T14:20:37;6.60;61.40
2763;DHT22;1389;51.490;7.338;2023-03-01T14:23:11;6.70;60.20
2763;DHT22;1389;51.490;7.338;2023-03-01T14:25:38;6.70;58.60
2763;DHT22;1389;51.490;7.338;2023-03-01T14:28:29;6.70;58.60
2763;DHT22;1389;51.490;7.338;2023-03-01T14:30:58;6.60;58.90
2763;DHT22;1389;51.490;7.338;2023-03-01T14:33:33;6.60;59.00
2763;DHT22;1389;51.490;7.338;2023-03-01T14:36:06;6.60;59.10
2763;DHT22;1389;51.490;7.338;2023-03-01T14:38:39;6.60;58.90
2763;DHT22;1389;51.490;7.338;2023-03-01T14:41:20;6.60;59.20
2763;DHT22;1389;51.490;7.338;2023-03-01T14:43:56;6.60;59.30
2763;DHT22;1389;51.490;7.338;2023-03-01T14:46:37;6.70;59.60
2763;DHT22;1389;51.490;7.338;2023-03-01T14:51:38;6.70;59.60
2763;DHT22;1389;51.490;7.338;2023-03-01T14:54:29;6.80;59.90
2763;DHT22;1389;51.490;7.338;2023-03-01T14:57:01;6.80;59.50
2763;DHT22;1389;51.490;7.338;2023-03-01T14:59:27;6.90;59.60
2763;DHT22;1389;51.490;7.338;2023-03-01T15:01:56;7.00;59.80
2763;DHT22;1389;51.490;7.338;2023-03-01T15:04:24;7.00;59.70
2763;DHT22;1389;51.490;7.338;2023-03-01T15:06:55;7.00;60.00
2763;DHT22;1389;51.490;7.338;2023-03-01T15:09:32;7.00;59.60
2763;DHT22;1389;51.490;7.338;2023-03-01T15:12:00;7.00;59.70
2763;DHT22;1389;51.490;7.338;2023-03-01T15:14:44;7.00;59.00
2763;DHT22;1389;51.490;7.338;2023-03-01T15:19:50;7.00;59.00
2763;DHT22;1389;51.490;7.338;2023-03-01T15:22:16;7.00;59.10
2763;DHT22;1389;51.490;7.338;2023-03-01T15:24:48;7.00;59.40
2763;DHT22;1389;51.490;7.338;2023-03-01T15:27:20;7.00;58.50
2763;DHT22;1389;51.490;7.338;2023-03-01T15:29:52;7.10;59.30
2763;DHT22;1389;51.490;7.338;2023-03-01T15:32:33;7.10;59.40
2763;DHT22;1389;51.490;7.338;2023-03-01T15:35:09;7.00;58.40
2763;DHT22;1389;51.490;7.338;2023-03-01T15:37:49;7.10;57.60
2763;DHT22;1389;51.490;7.338;2023-03-01T15:40:25;7.00;57.40
2763;DHT22;1389;51.490;7.338;2023-03-01T15:43:01;7.00;57.00
2763;DHT22;1389;51.490;7.338;2023-03-01T15:45:30;7.00;58.10
2763;DHT22;1389;51.490;7.338;2023-03-01T15:48:04;7.00;58.80
2763;DHT22;1389;51.490;7.338;2023-03-01T15:50:34;7.00;57.90
2763;DHT22;1389;51.490;7.338;2023-03-01T15:53:05;6.90;57.00
2763;DHT22;1389;51.490;7.338;2023-03-01T15:55:34;6.90;57.60
2763;DHT22;1389;51.490;7.338;2023-03-01T15:58:05;6.90;58.80
2763;DHT22;1389;51.490;7.338;2023-03-01T16:00:32;6.90;58.80
2763;DHT22;1389;51.490;7.338;2023-03-01T16:02:58;6.90;58.50
2763;DHT22;1389;51.490;7.338;2023-03-01T16:05:30;6.90;59.60
2763;DHT22;1389;51.490;7.338;2023-03-01T16:07:57;6.80;58.30
2763;DHT22;1389;51.490;7.338;2023-03-01T16:10:24;6.80;58.70
2763;DHT22;1389;51.490;7.338;2023-03-01T16:12:51;6.80;58.60
2763;DHT22;1389;51.490;7.338;2023-03-01T16:15:23;6.80;59.00
2763;DHT22;1389;51.490;7.338;2023-03-01T16:17:50;6.70;58.70
2763;DHT22;1389;51.490;7.338;2023-03-01T16:20:16;6.70;59.50
2763;DHT22;1389;51.490;7.338;2023-03-01T16:22:43;6.60;59.30
2763;DHT22;1389;51.490;7.338;2023-03-01T16:25:14;6.60;59.80
2763;DHT22;1389;51.490;7.338;2023-03-01T16:27:45;6.70;59.70
2763;DHT22;1389;51.490;7.338;2023-03-01T16:30:13;6.60;59.60
2763;DHT22;1389;51.490;7.338;2023-03-01T16:32:41;6.60;59.60
2763;DHT22;1389;51.490;7.338;2023-03-01T16:35:08;6.50;59.80
2763;DHT22;1389;51.490;7.338;2023-03-01T16:37:35;6.50;58.40
2763;DHT22;1389;51.490;7.338;2023-03-01T16:40:03;6.40;58.30
2763;DHT22;1389;51.490;7.338;2023-03-01T16:42:36;6.40;59.00
2763;DHT22;1389;51.490;7.338;2023-03-01T16:45:03;6.40;58.30
2763;DHT22;1389;51.490;7.338;2023-03-01T16:47:29;6.30;59.20
2763;DHT22;1389;51.490;7.338;2023-03-01T16:49:56;6.20;59.80
2763;DHT22;1389;51.490;7.338;2023-03-01T16:52:22;6.20;60.30
2763;DHT22;1389;51.490;7.338;2023-03-01T16:54:48;6.20;60.60
2763;DHT22;1389;51.490;7.338;2023-03-01T16:57:14;6.10;60.50
2763;DHT22;1389;51.490;7.338;2023-03-01T16:59:40;6.10;60.80
2763;DHT22;1389;51.490;7.338;2023-03-01T17:02:10;6.10;61.00
2763;DHT22;1389;51.490;7.338;2023-03-01T17:04:39;6.00;61.30
2763;DHT22;1389;51.490;7.338;2023-03-01T17:07:05;6.00;60.60
2763;DHT22;1389;51.490;7.338;2023-03-01T17:09:35;5.90;60.30
2763;DHT22;1389;51.490;7.338;2023-03-01T17:12:03;5.90;61.00
2763;DHT22;1389;51.490;7.338;2023-03-01T17:14:29;5.80;61.20
2763;DHT22;1389;51.490;7.338;2023-03-01T17:16:56;5.70;61.10
2763;DHT22;1389;51.490;7.338;2023-03-01T17:19:22;5.70;61.00
2763;DHT22;1389;51.490;7.338;2023-03-01T17:21:48;5.70;61.00
2763;DHT22;1389;51.490;7.338;2023-03-01T17:24:14;5.70;61.30
2763;DHT22;1389;51.490;7.338;2023-03-01T17:26:40;5.70;60.90
2763;DHT22;1389;51.490;7.338;2023-03-01T17:29:06;5.60;60.80
2763;DHT22;1389;51.490;7.338;2023-03-01T17:31:33;5.60;61.20
2763;DHT22;1389;51.490;7.338;2023-03-01T17:33:59;5.60;61.00
2763;DHT22;1389;51.490;7.338;2023-03-01T17:36:26;5.50;60.00
2763;DHT22;1389;51.490;7.338;2023-03-01T17:38:52;5.60;60.40
2763;DHT22;1389;51.490;7.338;2023-03-01T17:41:20;5.60;60.30
2763;DHT22;1389;51.490;7.338;2023-03-01T17:43:49;5.60;60.50
2763;DHT22;1389;51.490;7.338;2023-03-01T17:46:15;5.50;60.00
2763;DHT22;1389;51.490;7.338;2023-03-01T17:48:41;5.60;60.30
2763;DHT22;1389;51.490;7.338;2023-03-01T17:51:09;5.50;60.40
2763;DHT22;1389;51.490;7.338;2023-03-01T17:53:36;5.50;60.00
2763;DHT22;1389;51.490;7.338;2023-03-01T17:56:04;5.40;59.30
2763;DHT22;1389;51.490;7.338;2023-03-01T17:58:31;5.40;59.60
2763;DHT22;1389;51.490;7.338;2023-03-01T18:01:14;5.40;60.00
2763;DHT22;1389;51.490;7.338;2023-03-01T18:03:41;5.40;60.30
2763;DHT22;1389;51.490;7.338;2023-03-01T18:06:18;5.40;60.20
2763;DHT22;1389;51.490;7.338;2023-03-01T18:08:45;5.30;60.10
2763;DHT22;1389;51.490;7.338;2023-03-01T18:11:12;5.30;60.40
2763;DHT22;1389;51.490;7.338;2023-03-01T18:13:39;5.20;60.50
2763;DHT22;1389;51.490;7.338;2023-03-01T18:16:12;5.20;60.10
2763;DHT22;1389;51.490;7.338;2023-03-01T18:18:39;5.20;60.10
2763;DHT22;1389;51.490;7.338;2023-03-01T18:21:05;5.20;60.90
2763;DHT22;1389;51.490;7.338;2023-03-01T18:23:33;5.10;60.80
2763;DHT22;1389;51.490;7.338;2023-03-01T18:26:05;5.10;61.00
2763;DHT22;1389;51.490;7.338;2023-03-01T18:28:32;5.10;60.40
2763;DHT22;1389;51.490;7.338;2023-03-01T18:30:59;5.00;60.90
2763;DHT22;1389;51.490;7.338;2023-03-01T18:33:26;5.00;61.40
2763;DHT22;1389;51.490;7.338;2023-03-01T18:35:52;5.00;61.80